createdAt,value
2023-03-26T00:01:40.920Z,9.28
2023-03-26T00:04:08.508Z,8.98
2023-03-26T00:06:40.016Z,9.01
2023-03-26T00:09:09.692Z,10.14
2023-03-26T00:11:36.823Z,11.29
2023-03-26T00:14:05.877Z,12.13
2023-03-26T00:16:40.615Z,12.67
2023-03-26T00:19:08.390Z,12.43
2023-03-26T00:21:35.517Z,11.44
2023-03-26T00:24:06.652Z,10.65
2023-03-26T00:26:38.802Z,10.05
2023-03-26T00:29:07.221Z,9.57
2023-03-26T00:31:34.684Z,9.22
2023-03-26T00:34:04.054Z,8.94
2023-03-26T00:36:31.515Z,8.72
2023-03-26T00:38:58.672Z,8.56
2023-03-26T00:41:27.213Z,8.71
2023-03-26T00:43:57.125Z,9.91
2023-03-26T00:46:37.550Z,11.17
2023-03-26T00:49:04.633Z,12.14
2023-03-26T00:51:32.241Z,12.70
2023-03-26T00:53:59.358Z,12.90
2023-03-26T00:56:27.062Z,12.07
2023-03-26T00:58:54.172Z,11.11
2023-03-26T01:01:29.274Z,10.36
2023-03-26T01:04:08.957Z,9.78
2023-03-26T01:06:39.755Z,9.31
2023-03-26T01:09:20.266Z,8.95
2023-03-26T01:11:49.069Z,8.64
2023-03-26T01:14:25.467Z,8.41
2023-03-26T01:17:04.434Z,8.21
2023-03-26T01:19:52.538Z,8.04
2023-03-26T01:22:24.837Z,8.37
2023-03-26T01:24:57.015Z,9.77
2023-03-26T01:27:36.191Z,10.98
2023-03-26T01:30:27.809Z,11.76
2023-03-26T01:33:20.836Z,11.67
2023-03-26T01:36:29.388Z,10.63
2023-03-26T01:39:25.611Z,9.70
2023-03-26T01:41:58.725Z,9.09
2023-03-26T01:44:50.741Z,8.68
2023-03-26T01:47:18.802Z,8.34
2023-03-26T01:49:46.017Z,8.38
2023-03-26T01:52:20.086Z,9.53
2023-03-26T01:54:47.733Z,10.69
2023-03-26T01:57:40.012Z,11.55
2023-03-26T02:00:19.787Z,12.05
2023-03-26T02:02:59.459Z,11.40
2023-03-26T02:05:36.090Z,10.38
2023-03-26T02:08:17.069Z,9.61
2023-03-26T02:10:47.796Z,9.04
2023-03-26T02:13:15.680Z,8.63
2023-03-26T02:15:56.186Z,8.33
2023-03-26T02:18:24.440Z,8.43
2023-03-26T02:20:55.966Z,9.69
2023-03-26T02:23:23.399Z,10.87
2023-03-26T02:25:50.564Z,11.71
2023-03-26T02:28:17.965Z,12.32
2023-03-26T02:30:46.328Z,12.49
2023-03-26T02:33:15.998Z,11.63
2023-03-26T02:35:46.372Z,10.66
2023-03-26T02:38:15.014Z,9.92
2023-03-26T02:40:42.256Z,9.38
2023-03-26T02:43:09.503Z,8.96
2023-03-26T02:45:36.577Z,8.60
2023-03-26T02:48:04.156Z,8.34
2023-03-26T02:50:33.240Z,8.14
2023-03-26T02:53:01.162Z,8.28
2023-03-26T02:55:28.822Z,9.52
2023-03-26T02:57:56.852Z,10.75
2023-03-26T03:00:23.955Z,11.61
2023-03-26T03:02:51.099Z,12.22
2023-03-26T03:05:18.772Z,12.67
2023-03-26T03:07:46.999Z,12.74
2023-03-26T03:10:15.804Z,11.76
2023-03-26T03:12:43.675Z,10.73
2023-03-26T03:15:11.850Z,9.97
2023-03-26T03:17:38.958Z,9.40
2023-03-26T03:20:09.563Z,8.95
2023-03-26T03:22:36.972Z,8.59
2023-03-26T03:25:05.887Z,8.32
2023-03-26T03:27:33.115Z,8.41
2023-03-26T03:30:00.197Z,9.62
2023-03-26T03:32:28.036Z,10.84
2023-03-26T03:34:55.319Z,11.76
2023-03-26T03:37:22.357Z,12.27
2023-03-26T03:39:49.642Z,12.37
2023-03-26T03:42:16.824Z,11.50
2023-03-26T03:44:44.171Z,10.54
2023-03-26T03:47:14.089Z,9.79
2023-03-26T03:49:41.639Z,9.25
2023-03-26T03:52:08.922Z,8.84
2023-03-26T03:54:36.698Z,8.51
2023-03-26T03:57:03.948Z,8.51
2023-03-26T03:59:31.372Z,9.63
2023-03-26T04:01:58.770Z,10.84
2023-03-26T04:04:26.455Z,11.71
2023-03-26T04:06:53.429Z,12.28
2023-03-26T04:09:20.882Z,12.46
2023-03-26T04:11:48.279Z,11.58
2023-03-26T04:14:15.373Z,10.61
2023-03-26T04:16:42.602Z,9.90
2023-03-26T04:19:09.799Z,9.38
2023-03-26T04:21:38.056Z,8.97
2023-03-26T04:24:06.443Z,8.64
2023-03-26T04:26:33.375Z,8.38
2023-03-26T04:29:03.960Z,8.18
2023-03-26T04:31:31.587Z,8.26
2023-03-26T04:34:14.290Z,9.49
2023-03-26T04:36:42.949Z,10.81
2023-03-26T04:39:13.649Z,11.68
2023-03-26T04:41:40.828Z,12.27
2023-03-26T04:44:07.766Z,12.41
2023-03-26T04:46:35.370Z,11.56
2023-03-26T04:49:02.571Z,10.61
2023-03-26T04:51:38.724Z,9.90
2023-03-26T04:54:08.461Z,9.34
2023-03-26T04:56:52.141Z,8.93
2023-03-26T04:59:26.668Z,8.58
2023-03-26T05:01:54.558Z,8.33
2023-03-26T05:04:21.628Z,8.15
2023-03-26T05:06:49.064Z,8.21
2023-03-26T05:09:16.679Z,9.37
2023-03-26T05:11:43.881Z,10.59
2023-03-26T05:14:11.484Z,11.47
2023-03-26T05:16:40.004Z,12.11
2023-03-26T05:19:07.411Z,12.25
2023-03-26T05:21:35.193Z,11.36
2023-03-26T05:24:02.657Z,10.48
2023-03-26T05:26:29.927Z,9.82
2023-03-26T05:28:57.281Z,9.35
2023-03-26T05:31:25.085Z,9.00
2023-03-26T05:33:52.858Z,8.73
2023-03-26T05:36:20.316Z,8.51
2023-03-26T05:38:50.289Z,8.35
2023-03-26T05:41:18.208Z,8.22
2023-03-26T05:43:46.461Z,8.38
2023-03-26T05:46:14.532Z,9.60
2023-03-26T05:48:41.885Z,10.83
2023-03-26T05:51:09.664Z,11.75
2023-03-26T05:53:36.770Z,12.41
2023-03-26T05:56:04.780Z,12.56
2023-03-26T05:58:36.769Z,11.70
2023-03-26T06:01:17.147Z,10.80
2023-03-26T06:03:46.156Z,10.07
2023-03-26T06:06:16.516Z,9.57
2023-03-26T06:08:47.495Z,9.19
2023-03-26T06:11:15.265Z,8.90
2023-03-26T06:13:43.371Z,8.69
2023-03-26T06:16:25.979Z,8.54
2023-03-26T06:18:56.653Z,8.44
2023-03-26T06:21:26.000Z,8.65
2023-03-26T06:23:53.607Z,9.90
2023-03-26T06:26:21.645Z,11.13
2023-03-26T06:28:48.767Z,12.01
2023-03-26T06:31:17.661Z,12.35
2023-03-26T06:33:45.374Z,11.60
2023-03-26T06:36:12.383Z,10.86
2023-03-26T06:38:39.780Z,10.37
2023-03-26T06:41:08.154Z,10.06
2023-03-26T06:43:36.749Z,9.83
2023-03-26T06:46:04.852Z,9.61
2023-03-26T06:48:32.240Z,9.44
2023-03-26T06:51:08.950Z,9.33
2023-03-26T06:53:41.973Z,9.27
2023-03-26T06:56:18.897Z,9.41
2023-03-26T06:58:51.387Z,10.66
2023-03-26T07:01:18.626Z,12.27
2023-03-26T07:03:46.147Z,13.12
2023-03-26T07:06:13.512Z,12.53
2023-03-26T07:08:40.784Z,11.74
2023-03-26T07:11:08.023Z,11.17
2023-03-26T07:13:35.469Z,10.80
2023-03-26T07:16:03.108Z,10.56
2023-03-26T07:18:30.440Z,10.37
2023-03-26T07:20:58.052Z,10.23
2023-03-26T07:23:25.712Z,10.09
2023-03-26T07:25:53.365Z,9.99
2023-03-26T07:28:34.593Z,9.93
2023-03-26T07:31:35.095Z,9.87
2023-03-26T07:34:05.665Z,9.84
2023-03-26T07:36:48.794Z,9.82
2023-03-26T07:39:44.968Z,9.84
2023-03-26T07:42:28.709Z,9.94
2023-03-26T07:45:13.144Z,10.08
2023-03-26T07:47:43.222Z,10.26
2023-03-26T07:50:19.128Z,10.44
2023-03-26T07:52:46.972Z,10.70
2023-03-26T07:55:16.064Z,11.03
2023-03-26T07:58:17.621Z,11.23
2023-03-26T08:00:57.512Z,11.34
2023-03-26T08:03:30.864Z,11.40
2023-03-26T08:06:09.065Z,11.44
2023-03-26T08:08:45.999Z,11.52
2023-03-26T08:11:35.035Z,11.56
2023-03-26T08:14:20.272Z,11.56
2023-03-26T08:16:56.650Z,11.66
2023-03-26T08:19:29.516Z,11.86
2023-03-26T08:22:06.913Z,12.08
2023-03-26T08:24:47.827Z,12.35
2023-03-26T08:27:38.537Z,12.64
2023-03-26T08:30:17.593Z,12.98
2023-03-26T08:32:54.354Z,13.32
2023-03-26T08:35:21.654Z,13.60
2023-03-26T08:37:48.569Z,13.79
2023-03-26T08:40:46.434Z,13.99
2023-03-26T08:43:44.374Z,14.28
2023-03-26T08:46:30.931Z,14.61
2023-03-26T08:49:29.679Z,14.94
2023-03-26T08:52:34.530Z,15.19
2023-03-26T08:55:17.118Z,15.34
2023-03-26T08:58:21.758Z,15.30
2023-03-26T09:01:17.531Z,15.17
2023-03-26T09:04:13.666Z,14.94
2023-03-26T09:06:48.695Z,14.74
2023-03-26T09:09:31.273Z,14.59
2023-03-26T09:12:36.191Z,14.39
2023-03-26T09:15:28.479Z,14.13
2023-03-26T09:17:58.584Z,13.99
2023-03-26T09:20:44.146Z,13.92
2023-03-26T09:23:45.471Z,13.86
2023-03-26T09:26:25.358Z,13.79
2023-03-26T09:29:10.540Z,13.70
2023-03-26T09:32:02.830Z,13.64
2023-03-26T09:34:33.277Z,13.59
2023-03-26T09:37:21.900Z,13.53
2023-03-26T09:40:18.875Z,13.45
2023-03-26T09:43:17.181Z,13.43
2023-03-26T09:45:52.902Z,13.44
2023-03-26T09:48:58.514Z,13.46
2023-03-26T09:51:27.739Z,13.50
2023-03-26T09:54:32.351Z,13.56
2023-03-26T09:57:09.021Z,13.64
2023-03-26T09:59:51.944Z,13.69
2023-03-26T10:02:46.234Z,13.71
2023-03-26T10:05:30.451Z,13.75
2023-03-26T10:08:25.418Z,13.74
2023-03-26T10:10:58.652Z,13.72
2023-03-26T10:13:43.979Z,13.75
2023-03-26T10:16:30.139Z,13.94
2023-03-26T10:19:20.311Z,14.11
2023-03-26T10:22:11.981Z,14.24
2023-03-26T10:25:19.740Z,14.27
2023-03-26T10:28:07.820Z,14.21
2023-03-26T10:30:48.771Z,14.27
2023-03-26T10:33:38.458Z,14.56
2023-03-26T10:36:23.372Z,14.99
2023-03-26T10:39:09.599Z,15.26
2023-03-26T10:41:45.975Z,15.33
2023-03-26T10:44:46.055Z,15.31
2023-03-26T10:47:24.970Z,15.27
2023-03-26T10:50:23.124Z,15.24
2023-03-26T10:53:53.164Z,15.28
2023-03-26T10:56:33.273Z,15.34
2023-03-26T10:59:05.987Z,15.17
2023-03-26T11:01:33.323Z,15.03
2023-03-26T11:04:32.562Z,15.10
2023-03-26T11:07:07.500Z,15.66
2023-03-26T11:09:54.335Z,16.26
2023-03-26T11:12:25.798Z,16.77
2023-03-26T11:15:16.543Z,17.12
2023-03-26T11:18:01.973Z,17.39
2023-03-26T11:21:19.770Z,17.39
2023-03-26T11:24:17.403Z,17.18
2023-03-26T11:26:56.173Z,16.92
2023-03-26T11:29:53.664Z,16.76
2023-03-26T11:32:38.590Z,16.72
2023-03-26T11:35:40.540Z,16.72
2023-03-26T11:38:34.032Z,16.65
2023-03-26T11:41:04.203Z,16.59
2023-03-26T11:43:37.723Z,16.49
2023-03-26T11:46:15.103Z,16.37
2023-03-26T11:48:51.332Z,16.19
2023-03-26T11:51:33.502Z,15.99
2023-03-26T11:54:03.406Z,15.82
2023-03-26T11:57:05.594Z,15.66
2023-03-26T11:59:53.152Z,15.51
2023-03-26T12:02:32.930Z,15.40
2023-03-26T12:05:18.852Z,15.28
2023-03-26T12:07:47.240Z,15.08
2023-03-26T12:10:29.443Z,14.87
2023-03-26T12:13:02.546Z,14.65
2023-03-26T12:15:34.246Z,14.46
2023-03-26T12:18:28.964Z,14.27
2023-03-26T12:21:09.227Z,14.10
2023-03-26T12:24:06.423Z,14.01
2023-03-26T12:26:36.878Z,14.00
2023-03-26T12:29:17.888Z,14.03
2023-03-26T12:32:03.641Z,14.08
2023-03-26T12:34:35.685Z,14.14
2023-03-26T12:37:05.077Z,14.22
2023-03-26T12:40:07.134Z,14.36
2023-03-26T12:44:47.214Z,14.61
2023-03-26T12:45:37.972Z,14.81
2023-03-26T12:48:05.781Z,14.98
2023-03-26T12:50:44.639Z,15.17
2023-03-26T12:53:23.515Z,15.28
2023-03-26T12:56:02.235Z,15.31
2023-03-26T12:58:44.378Z,15.26
2023-03-26T13:01:16.259Z,15.18
2023-03-26T13:04:07.196Z,15.10
2023-03-26T13:06:59.260Z,15.05
2023-03-26T13:09:56.400Z,15.00
2023-03-26T13:12:42.224Z,15.00
2023-03-26T13:15:39.204Z,15.08
2023-03-26T13:18:33.340Z,15.26
2023-03-26T13:21:23.843Z,15.42
2023-03-26T13:24:14.227Z,15.45
2023-03-26T13:27:13.626Z,15.39
2023-03-26T13:29:41.130Z,15.30
2023-03-26T13:32:40.559Z,15.20
2023-03-26T13:35:14.247Z,15.04
2023-03-26T13:37:56.321Z,14.92
2023-03-26T13:40:39.507Z,14.80
2023-03-26T13:43:44.444Z,14.67
2023-03-26T13:46:14.342Z,14.50
2023-03-26T13:49:00.419Z,14.40
2023-03-26T13:51:49.213Z,14.40
2023-03-26T13:54:23.849Z,14.42
2023-03-26T13:57:33.568Z,14.42
2023-03-26T14:00:13.078Z,14.45
2023-03-26T14:02:42.435Z,14.41
2023-03-26T14:05:25.323Z,14.40
2023-03-26T14:08:21.924Z,14.38
2023-03-26T14:11:14.712Z,14.34
2023-03-26T14:13:47.606Z,14.31
2023-03-26T14:16:25.966Z,14.27
2023-03-26T14:19:29.808Z,14.18
2023-03-26T14:22:08.480Z,14.06
2023-03-26T14:24:54.818Z,13.92
2023-03-26T14:27:43.523Z,13.83
2023-03-26T14:30:39.967Z,13.76
2023-03-26T14:33:34.745Z,13.71
2023-03-26T14:36:16.170Z,13.69
2023-03-26T14:39:01.672Z,13.68
2023-03-26T14:41:57.281Z,13.68
2023-03-26T14:44:56.806Z,13.69
2023-03-26T14:47:27.591Z,13.72
2023-03-26T14:50:14.559Z,13.78
2023-03-26T14:53:01.263Z,13.83
2023-03-26T14:55:43.958Z,13.85
2023-03-26T14:58:29.762Z,13.88
2023-03-26T15:01:42.032Z,13.91
2023-03-26T15:04:33.565Z,13.94
2023-03-26T15:07:45.248Z,13.96
2023-03-26T15:10:23.029Z,13.95
2023-03-26T15:13:22.254Z,13.95
2023-03-26T15:15:58.405Z,13.95
2023-03-26T15:18:58.961Z,13.94
2023-03-26T15:21:47.842Z,13.92
2023-03-26T15:24:31.382Z,13.88
2023-03-26T15:27:16.963Z,13.86
2023-03-26T15:30:06.880Z,13.84
2023-03-26T15:33:23.062Z,13.79
2023-03-26T15:36:19.815Z,13.73
2023-03-26T15:39:18.120Z,13.65
2023-03-26T15:41:50.319Z,13.59
2023-03-26T15:44:29.407Z,13.54
2023-03-26T15:47:28.631Z,13.49
2023-03-26T15:50:08.835Z,13.44
2023-03-26T15:52:43.296Z,13.40
2023-03-26T15:55:23.414Z,13.37
2023-03-26T15:58:24.322Z,13.32
2023-03-26T16:01:03.240Z,13.28
2023-03-26T16:03:39.453Z,13.23
2023-03-26T16:06:31.388Z,13.22
2023-03-26T16:09:40.960Z,13.19
2023-03-26T16:12:29.210Z,13.16
2023-03-26T16:15:16.872Z,13.14
2023-03-26T16:18:16.378Z,13.11
2023-03-26T16:20:57.500Z,13.07
2023-03-26T16:23:32.330Z,13.02
2023-03-26T16:26:13.377Z,12.98
2023-03-26T16:28:46.003Z,12.93
2023-03-26T16:31:36.918Z,12.87
2023-03-26T16:34:05.618Z,12.80
2023-03-26T16:36:35.027Z,12.74
2023-03-26T16:39:11.860Z,12.67
2023-03-26T16:41:50.559Z,12.58
2023-03-26T16:44:59.280Z,12.49
2023-03-26T16:47:39.011Z,12.39
2023-03-26T16:50:32.973Z,12.31
2023-03-26T16:53:30.187Z,12.24
2023-03-26T16:56:02.904Z,12.16
2023-03-26T16:58:56.562Z,12.13
2023-03-26T17:01:56.927Z,12.08
2023-03-26T17:04:30.802Z,12.06
2023-03-26T17:07:09.135Z,12.03
2023-03-26T17:10:10.046Z,12.01
2023-03-26T17:13:03.199Z,11.98
2023-03-26T17:15:47.377Z,11.95
2023-03-26T17:18:26.610Z,11.94
2023-03-26T17:21:10.157Z,11.93
2023-03-26T17:23:39.081Z,11.91
2023-03-26T17:26:31.726Z,11.89
2023-03-26T17:29:27.644Z,11.86
2023-03-26T17:32:12.158Z,11.81
2023-03-26T17:34:47.343Z,11.78
2023-03-26T17:37:17.379Z,11.74
2023-03-26T17:39:45.743Z,11.71
2023-03-26T17:42:33.522Z,11.68
2023-03-26T17:45:17.849Z,11.64
2023-03-26T17:47:51.741Z,11.59
2023-03-26T17:50:27.682Z,11.56
2023-03-26T17:53:04.089Z,11.51
2023-03-26T17:55:35.210Z,11.45
2023-03-26T17:58:05.435Z,11.39
2023-03-26T18:00:40.683Z,11.33
2023-03-26T18:03:24.523Z,11.27
2023-03-26T18:05:56.854Z,11.20
2023-03-26T18:08:55.367Z,11.11
2023-03-26T18:11:43.683Z,11.00
2023-03-26T18:14:26.721Z,10.88
2023-03-26T18:16:58.966Z,10.76
2023-03-26T18:19:27.219Z,10.65
2023-03-26T18:21:57.927Z,10.57
2023-03-26T18:24:30.553Z,10.50
2023-03-26T18:27:11.993Z,10.44
2023-03-26T18:30:02.819Z,10.38
2023-03-26T18:32:34.068Z,10.32
2023-03-26T18:35:03.290Z,10.29
2023-03-26T18:37:36.426Z,10.24
2023-03-26T18:40:12.503Z,10.18
2023-03-26T18:42:41.696Z,10.13
2023-03-26T18:45:34.051Z,10.07
2023-03-26T18:48:21.690Z,10.02
2023-03-26T18:50:55.042Z,9.97
2023-03-26T18:53:30.021Z,10.15
2023-03-26T18:55:58.471Z,11.46
2023-03-26T18:58:33.118Z,12.72
2023-03-26T19:01:16.942Z,13.56
2023-03-26T19:03:51.396Z,14.27
2023-03-26T19:06:21.234Z,14.77
2023-03-26T19:08:49.044Z,14.90
2023-03-26T19:11:17.892Z,14.03
2023-03-26T19:13:50.888Z,13.13
2023-03-26T19:16:26.065Z,12.43
2023-03-26T19:18:54.167Z,11.88
2023-03-26T19:21:23.533Z,11.45
2023-03-26T19:23:52.599Z,11.09
2023-03-26T19:26:19.843Z,10.80
2023-03-26T19:28:54.559Z,10.54
2023-03-26T19:31:28.129Z,10.29
2023-03-26T19:34:02.567Z,10.30
2023-03-26T19:36:32.751Z,11.38
2023-03-26T19:38:59.653Z,12.46
2023-03-26T19:41:32.576Z,13.28
2023-03-26T19:44:02.000Z,13.88
2023-03-26T19:46:52.873Z,14.29
2023-03-26T19:49:58.080Z,14.63
2023-03-26T19:52:36.916Z,14.90
2023-03-26T19:55:19.099Z,14.74
2023-03-26T19:57:46.279Z,13.61
2023-03-26T20:00:14.748Z,12.61
2023-03-26T20:02:43.406Z,11.83
2023-03-26T20:05:25.967Z,11.24
2023-03-26T20:07:58.677Z,10.74
2023-03-26T20:10:26.359Z,10.35
2023-03-26T20:12:53.656Z,10.27
2023-03-26T20:15:24.729Z,11.30
2023-03-26T20:17:54.859Z,12.55
2023-03-26T20:20:25.006Z,13.38
2023-03-26T20:22:54.139Z,14.02
2023-03-26T20:25:50.220Z,14.50
2023-03-26T20:28:19.400Z,14.91
2023-03-26T20:30:48.468Z,15.21
2023-03-26T20:33:19.490Z,15.24
2023-03-26T20:35:47.492Z,14.30
2023-03-26T20:38:14.715Z,13.34
2023-03-26T20:40:41.816Z,12.61
2023-03-26T20:43:14.081Z,12.04
2023-03-26T20:45:41.118Z,11.56
2023-03-26T20:48:12.143Z,11.15
2023-03-26T20:50:50.482Z,11.04
2023-03-26T20:53:19.262Z,12.03
2023-03-26T20:55:47.961Z,13.02
2023-03-26T20:58:31.530Z,13.68
2023-03-26T21:01:02.563Z,14.13
2023-03-26T21:03:29.997Z,14.46
2023-03-26T21:06:01.280Z,14.68
2023-03-26T21:08:35.610Z,14.85
2023-03-26T21:11:04.978Z,14.97
2023-03-26T21:13:43.983Z,15.04
2023-03-26T21:16:12.428Z,15.12
2023-03-26T21:18:40.331Z,15.22
2023-03-26T21:21:42.072Z,15.06
2023-03-26T21:24:15.064Z,13.71
2023-03-26T21:26:55.395Z,12.65
2023-03-26T21:29:23.175Z,11.81
2023-03-26T21:31:52.170Z,11.19
2023-03-26T21:34:22.517Z,10.69
2023-03-26T21:36:59.798Z,10.29
2023-03-26T21:39:31.085Z,10.32
2023-03-26T21:42:05.436Z,11.50
2023-03-26T21:44:35.978Z,12.64
2023-03-26T21:47:12.007Z,13.38
2023-03-26T21:49:43.626Z,13.87
2023-03-26T21:52:15.230Z,14.21
2023-03-26T21:54:43.414Z,14.48
2023-03-26T21:57:21.621Z,14.73
2023-03-26T22:00:28.209Z,14.93
2023-03-26T22:03:21.855Z,15.00
2023-03-26T22:06:02.662Z,15.06
2023-03-26T22:08:41.704Z,14.89
2023-03-26T22:11:11.045Z,13.76
2023-03-26T22:13:39.355Z,12.72
2023-03-26T22:16:09.068Z,11.92
2023-03-26T22:18:36.002Z,11.25
2023-03-26T22:21:02.887Z,10.72
2023-03-26T22:23:36.639Z,10.54
2023-03-26T22:26:05.071Z,11.52
2023-03-26T22:28:32.295Z,12.54
2023-03-26T22:30:59.967Z,13.25
2023-03-26T22:33:27.274Z,13.66
2023-03-26T22:35:56.118Z,13.93
2023-03-26T22:38:23.297Z,14.11
2023-03-26T22:40:58.143Z,14.25
2023-03-26T22:43:25.224Z,14.41
2023-03-26T22:45:54.440Z,14.53
2023-03-26T22:48:23.935Z,14.67
2023-03-26T22:51:05.691Z,14.80
2023-03-26T22:53:32.906Z,14.93
2023-03-26T22:56:00.145Z,14.77
2023-03-26T22:58:27.495Z,13.67
2023-03-26T23:01:08.427Z,12.52
2023-03-26T23:03:37.157Z,11.49
2023-03-26T23:06:07.184Z,10.98
2023-03-26T23:08:36.471Z,11.69
2023-03-26T23:11:08.652Z,12.56
2023-03-26T23:13:35.531Z,13.21
2023-03-26T23:18:29.068Z,13.98
2023-03-26T23:20:57.862Z,14.26
2023-03-26T23:23:31.213Z,14.53
2023-03-26T23:26:00.378Z,14.74
2023-03-26T23:28:30.534Z,14.93
2023-03-26T23:30:57.568Z,14.91
2023-03-26T23:33:26.626Z,13.98
2023-03-26T23:36:00.198Z,12.95
2023-03-26T23:38:43.553Z,12.14
2023-03-26T23:41:15.447Z,11.46
2023-03-26T23:43:54.276Z,11.31
2023-03-26T23:46:24.175Z,12.32
2023-03-26T23:48:51.947Z,13.24
2023-03-26T23:51:24.291Z,13.86
2023-03-26T23:53:52.818Z,14.28
2023-03-26T23:56:20.490Z,14.59
2023-03-26T23:58:49.114Z,14.85
